Time;durP1;ratioP1;P1;durP2;ratioP2;P2;SDS_P1;SDS_P2;PMS_P1;PMS_P2;Temp;Humidity;BMP_temperature;BMP_pressure;BME280_temperature;BME280_humidity;BME280_pressure;Samples;Min_cycle;Max_cycle;Signal;HPM_P1;HPM_P2
2024/02/22 00:01:36;;;;;;;22.70;16.30;;;9.60;99.90;;;;;;5055312;28;20035;-69
2024/02/22 00:04:02;;;;;;;27.23;16.07;;;9.60;99.90;;;;;;5056521;28;20029;-70
2024/02/22 00:06:28;;;;;;;22.27;15.87;;;9.70;99.90;;;;;;5056450;28;20028;-70
2024/02/22 00:08:54;;;;;;;20.93;14.87;;;9.70;99.90;;;;;;5056624;28;20036;-69
2024/02/22 00:11:19;;;;;;;22.83;15.70;;;9.70;99.90;;;;;;5056453;28;20051;-69
2024/02/22 00:13:46;;;;;;;23.93;15.50;;;9.70;99.90;;;;;;5056360;28;20492;-69
2024/02/22 00:16:14;;;;;;;22.67;15.37;;;9.70;99.90;;;;;;5056104;28;20067;-69
2024/02/22 00:18:41;;;;;;;18.87;14.53;;;9.70;99.90;;;;;;5055756;28;20075;-69
2024/02/22 00:21:06;;;;;;;23.97;15.03;;;9.60;99.90;;;;;;5056502;28;20537;-69
2024/02/22 00:23:32;;;;;;;22.13;15.53;;;9.70;99.90;;;;;;5056247;28;20060;-69
2024/02/22 00:25:58;;;;;;;22.57;15.47;;;9.70;99.90;;;;;;5056360;28;20017;-69
2024/02/22 00:28:24;;;;;;;20.30;15.23;;;9.70;99.90;;;;;;5056249;28;20078;-69
2024/02/22 00:30:50;;;;;;;23.77;15.00;;;9.70;99.90;;;;;;5055905;28;20017;-69
2024/02/22 00:33:15;;;;;;;23.23;15.50;;;9.70;99.90;;;;;;5055831;28;20056;-69
2024/02/22 00:35:42;;;;;;;22.47;15.07;;;9.70;99.90;;;;;;5056301;28;20028;-69
2024/02/22 00:38:08;;;;;;;22.93;16.23;;;9.70;99.90;;;;;;5056152;28;20033;-69
2024/02/22 00:40:34;;;;;;;23.10;15.77;;;9.70;99.90;;;;;;5055967;28;20043;-69
2024/02/22 00:43:00;;;;;;;25.23;15.47;;;9.70;99.90;;;;;;5055965;28;20077;-68
2024/02/22 00:45:25;;;;;;;23.67;16.23;;;9.70;99.90;;;;;;5055894;28;20099;-69
2024/02/22 00:47:51;;;;;;;20.73;14.73;;;9.60;99.90;;;;;;5056150;28;20025;-69
2024/02/22 00:50:17;;;;;;;24.97;15.83;;;9.60;99.90;;;;;;5055948;28;20151;-69
2024/02/22 00:52:43;;;;;;;22.70;16.13;;;9.60;99.90;;;;;;5055745;28;20029;-69
2024/02/22 00:55:08;;;;;;;24.23;16.07;;;9.60;99.90;;;;;;5055810;28;20079;-69
2024/02/22 00:57:34;;;;;;;23.70;16.47;;;9.60;99.90;;;;;;5055599;28;20025;-69
2024/02/22 01:00:00;;;;;;;24.27;16.23;;;9.50;99.90;;;;;;5055630;28;20112;-69
2024/02/22 01:02:26;;;;;;;24.33;16.30;;;9.50;99.90;;;;;;5055756;28;20025;-69
2024/02/22 01:04:52;;;;;;;26.00;17.03;;;9.50;99.90;;;;;;5055559;28;20040;-69
2024/02/22 01:07:20;;;;;;;28.33;15.87;;;9.50;99.90;;;;;;5055689;28;20021;-69
2024/02/22 01:09:46;;;;;;;30.17;17.10;;;9.40;99.90;;;;;;5055332;28;20025;-69
2024/02/22 01:12:12;;;;;;;23.00;15.87;;;9.40;99.90;;;;;;5055063;28;20037;-69
2024/02/22 01:14:37;;;;;;;26.43;14.93;;;9.40;99.90;;;;;;5055363;28;20025;-69
2024/02/22 01:17:03;;;;;;;24.40;15.00;;;9.40;99.90;;;;;;5055439;28;20104;-69
2024/02/22 01:19:29;;;;;;;23.70;16.57;;;9.40;99.90;;;;;;5055337;28;20032;-69
2024/02/22 01:21:56;;;;;;;22.80;16.73;;;9.40;99.90;;;;;;5055234;28;20025;-69
2024/02/22 01:24:22;;;;;;;20.67;15.00;;;9.40;99.90;;;;;;5055410;28;20053;-69
2024/02/22 01:26:48;;;;;;;22.77;14.97;;;9.30;99.90;;;;;;5055321;28;20385;-69
2024/02/22 01:29:14;;;;;;;21.63;15.77;;;9.30;99.90;;;;;;5055045;28;20021;-69
2024/02/22 01:31:40;;;;;;;21.60;15.03;;;9.30;99.90;;;;;;5054974;28;20024;-69
2024/02/22 01:34:05;;;;;;;19.47;14.77;;;9.30;99.90;;;;;;5055107;28;20032;-69
2024/02/22 01:36:31;;;;;;;22.37;15.63;;;9.30;99.90;;;;;;5055249;28;20037;-69
2024/02/22 01:38:57;;;;;;;21.17;14.27;;;9.30;99.90;;;;;;5037122;28;20036;-69
2024/02/22 01:41:23;;;;;;;23.33;15.60;;;9.30;99.90;;;;;;5054912;28;20029;-69
2024/02/22 01:43:49;;;;;;;21.77;13.70;;;9.30;99.90;;;;;;5054665;28;20028;-69
2024/02/22 01:46:15;;;;;;;20.27;14.40;;;9.30;99.90;;;;;;5055088;28;20028;-69
2024/02/22 01:48:42;;;;;;;22.07;14.93;;;9.20;99.90;;;;;;5054660;28;20072;-69
2024/02/22 01:51:08;;;;;;;18.43;14.27;;;9.20;99.90;;;;;;5054873;28;20025;-69
2024/02/22 01:53:35;;;;;;;20.80;14.07;;;9.30;99.90;;;;;;5054738;28;20025;-69
2024/02/22 01:56:01;;;;;;;19.10;12.70;;;9.30;99.90;;;;;;5054497;28;20481;-69
2024/02/22 01:58:35;;;;;;;18.43;13.17;;;9.20;99.90;;;;;;5052918;28;20029;-69
2024/02/22 02:01:03;;;;;;;18.23;12.63;;;9.20;99.90;;;;;;5051671;28;20493;-69
2024/02/22 02:03:30;;;;;;;27.80;13.50;;;9.20;99.90;;;;;;5051458;28;20036;-69
2024/02/22 02:05:56;;;;;;;25.50;13.27;;;9.20;99.90;;;;;;5053755;28;20029;-69
2024/02/22 02:08:23;;;;;;;32.90;13.83;;;9.10;99.90;;;;;;5054312;28;20024;-69
2024/02/22 02:10:49;;;;;;;33.40;13.93;;;9.10;99.90;;;;;;5054301;28;20060;-69
2024/02/22 02:13:15;;;;;;;43.10;14.60;;;9.10;99.90;;;;;;5053982;28;20056;-69
2024/02/22 02:15:41;;;;;;;44.57;13.67;;;9.10;99.90;;;;;;5054271;28;20021;-69
2024/02/22 02:18:07;;;;;;;38.40;15.70;;;9.10;99.90;;;;;;5054258;28;20055;-69
2024/02/22 02:20:58;;;;;;;27.67;13.77;;;9.10;99.90;;;;;;5053601;28;20037;-69
2024/02/22 02:23:50;;;;;;;21.90;12.80;;;9.10;99.90;;;;;;5041910;28;20111;-69
2024/02/22 02:26:16;;;;;;;21.33;13.77;;;9.10;99.90;;;;;;5054054;28;20036;-69
2024/02/22 02:28:41;;;;;;;19.53;13.93;;;9.10;99.90;;;;;;5053741;28;20032;-69
2024/02/22 02:31:07;;;;;;;20.07;13.30;;;9.10;99.90;;;;;;5053671;28;20024;-69
2024/02/22 02:33:34;;;;;;;22.10;13.97;;;9.10;99.90;;;;;;5053741;28;20189;-69
2024/02/22 02:36:00;;;;;;;19.87;13.00;;;9.10;99.90;;;;;;5053680;28;20052;-69
2024/02/22 02:38:26;;;;;;;20.10;13.13;;;9.00;99.90;;;;;;5053657;28;20106;-69
2024/02/22 02:40:52;;;;;;;22.40;13.30;;;9.00;99.90;;;;;;5053697;28;20025;-69
2024/02/22 02:43:17;;;;;;;18.97;13.03;;;9.00;99.90;;;;;;5053822;28;20021;-69
2024/02/22 02:45:43;;;;;;;20.27;12.60;;;9.00;99.90;;;;;;5053722;28;20370;-69
2024/02/22 02:48:09;;;;;;;21.33;13.60;;;9.00;99.90;;;;;;5053579;28;20021;-69
2024/02/22 02:50:35;;;;;;;19.63;13.43;;;9.00;99.90;;;;;;5035707;28;20366;-69
2024/02/22 02:53:01;;;;;;;16.60;11.77;;;9.00;99.90;;;;;;5053361;28;20027;-69
2024/02/22 02:55:26;;;;;;;16.60;12.07;;;9.00;99.90;;;;;;5053496;28;20033;-69
2024/02/22 02:57:54;;;;;;;18.57;12.93;;;9.00;99.90;;;;;;5053256;28;20021;-69
2024/02/22 03:00:20;;;;;;;16.90;12.10;;;8.90;99.90;;;;;;5053236;28;20083;-69
2024/02/22 03:02:46;;;;;;;16.27;11.53;;;8.90;99.90;;;;;;5053238;28;20033;-69
2024/02/22 03:05:11;;;;;;;18.13;12.47;;;8.90;99.90;;;;;;5053310;28;20056;-69
2024/02/22 03:07:37;;;;;;;18.63;12.50;;;8.90;99.90;;;;;;5053471;28;20067;-69
2024/02/22 03:10:05;;;;;;;16.80;11.57;;;8.80;99.90;;;;;;5053361;28;20025;-69
2024/02/22 03:12:31;;;;;;;17.27;11.73;;;8.80;99.90;;;;;;5053337;28;20049;-69
2024/02/22 03:14:57;;;;;;;17.30;11.53;;;8.90;99.90;;;;;;5053299;28;20025;-69
2024/02/22 03:17:24;;;;;;;19.47;11.73;;;8.80;99.90;;;;;;5052957;28;20036;-68
2024/02/22 03:19:52;;;;;;;17.70;11.93;;;8.80;99.90;;;;;;5052755;28;20489;-69
2024/02/22 03:22:19;;;;;;;15.10;11.73;;;8.80;99.90;;;;;;5053079;28;20025;-69
2024/02/22 03:24:45;;;;;;;18.93;11.10;;;8.80;99.90;;;;;;5053258;28;20033;-69
2024/02/22 03:27:11;;;;;;;15.40;10.87;;;8.80;99.90;;;;;;5052886;28;20024;-69
2024/02/22 03:29:41;;;;;;;18.17;11.30;;;8.70;99.90;;;;;;5052784;28;20025;-69
2024/02/22 03:32:07;;;;;;;16.97;11.30;;;8.70;99.90;;;;;;5052689;28;20104;-69
2024/02/22 03:34:33;;;;;;;17.43;10.93;;;8.70;99.90;;;;;;5052952;28;20028;-69
2024/02/22 03:37:00;;;;;;;15.27;10.93;;;8.70;99.90;;;;;;5052991;28;20025;-69
2024/02/22 03:39:29;;;;;;;19.73;11.80;;;8.70;99.90;;;;;;5053001;28;20033;-69
2024/02/22 03:41:55;;;;;;;18.40;11.70;;;8.60;99.90;;;;;;5052723;28;20358;-69
2024/02/22 03:44:21;;;;;;;21.17;11.47;;;8.60;99.90;;;;;;5052718;28;20071;-69
2024/02/22 03:46:51;;;;;;;20.53;11.97;;;8.60;99.90;;;;;;5052761;28;20017;-69
2024/02/22 03:49:17;;;;;;;21.17;11.23;;;8.60;99.90;;;;;;5052821;28;20025;-69
2024/02/22 03:51:42;;;;;;;20.17;10.93;;;8.60;99.90;;;;;;5052647;28;20496;-69
2024/02/22 03:54:08;;;;;;;24.70;10.97;;;8.60;99.90;;;;;;5052741;28;20047;-69
2024/02/22 03:56:36;;;;;;;18.57;11.23;;;8.60;99.90;;;;;;5052428;28;20074;-69
2024/02/22 03:59:06;;;;;;;24.00;12.03;;;8.60;99.90;;;;;;5052569;28;20442;-69
2024/02/22 04:01:32;;;;;;;19.77;12.20;;;8.60;99.90;;;;;;5052558;28;20120;-69
2024/02/22 04:03:58;;;;;;;23.47;11.67;;;8.50;99.90;;;;;;5052400;28;20048;-69
2024/02/22 04:06:24;;;;;;;19.90;11.20;;;8.50;99.90;;;;;;5052464;28;20031;-69
2024/02/22 04:08:51;;;;;;;20.77;10.53;;;8.50;99.90;;;;;;5051971;28;20025;-69
2024/02/22 04:11:17;;;;;;;19.10;11.10;;;8.40;99.90;;;;;;5052667;28;20095;-69
2024/02/22 04:13:43;;;;;;;19.53;10.97;;;8.40;99.90;;;;;;5052249;28;20052;-69
2024/02/22 04:16:09;;;;;;;15.00;10.90;;;8.30;99.90;;;;;;5052503;28;20021;-69
2024/02/22 04:18:36;;;;;;;20.33;11.27;;;8.30;99.90;;;;;;5052509;28;20048;-69
2024/02/22 04:21:02;;;;;;;21.37;11.83;;;8.30;99.90;;;;;;5052545;28;20388;-69
2024/02/22 04:23:28;;;;;;;19.67;11.90;;;8.30;99.90;;;;;;5052429;28;20025;-69
2024/02/22 04:25:54;;;;;;;18.83;10.97;;;8.30;99.90;;;;;;5052267;28;20377;-69
2024/02/22 04:28:20;;;;;;;17.33;10.23;;;8.20;99.90;;;;;;5052356;28;20053;-69
2024/02/22 04:30:47;;;;;;;13.50;9.73;;;8.30;99.90;;;;;;5052340;28;20425;-69
2024/02/22 04:33:13;;;;;;;13.50;10.20;;;8.30;99.90;;;;;;5052616;28;20021;-69
2024/02/22 04:35:43;;;;;;;17.33;10.30;;;8.20;99.90;;;;;;5052484;28;20055;-69
2024/02/22 04:38:09;;;;;;;13.17;9.33;;;8.20;99.90;;;;;;5051991;28;20473;-69
2024/02/22 04:40:39;;;;;;;11.67;7.90;;;8.30;99.90;;;;;;5052152;28;20047;-69
2024/02/22 04:43:05;;;;;;;15.33;9.30;;;8.30;99.90;;;;;;5052771;28;20043;-69
2024/02/22 04:45:33;;;;;;;12.50;8.13;;;8.30;99.90;;;;;;5052135;28;20036;-69
2024/02/22 04:48:01;;;;;;;13.53;8.90;;;8.30;99.90;;;;;;5055450;28;20021;-68
2024/02/22 04:50:27;;;;;;;13.33;8.67;;;8.40;99.90;;;;;;5055862;28;20113;-69
2024/02/22 04:52:53;;;;;;;12.37;8.70;;;8.40;99.90;;;;;;5055990;28;20049;-69
2024/02/22 04:55:19;;;;;;;13.30;8.03;;;8.40;99.90;;;;;;5055918;28;20060;-69
2024/02/22 04:57:47;;;;;;;13.10;8.17;;;8.40;99.90;;;;;;5055722;28;20060;-69
2024/02/22 05:00:14;;;;;;;13.73;8.97;;;8.40;99.90;;;;;;5055636;28;20040;-69
2024/02/22 05:02:40;;;;;;;17.20;8.93;;;8.40;99.90;;;;;;5037227;28;20029;-69
2024/02/22 05:05:09;;;;;;;15.77;9.53;;;8.50;99.90;;;;;;5055488;28;20178;-69
2024/02/22 05:07:36;;;;;;;14.37;8.93;;;8.50;99.90;;;;;;5037572;28;20025;-69
2024/02/22 05:10:03;;;;;;;23.10;9.83;;;8.50;99.90;;;;;;5055545;28;20419;-69
2024/02/22 05:12:29;;;;;;;23.30;10.67;;;8.50;99.90;;;;;;5055148;28;20048;-69
2024/02/22 05:14:55;;;;;;;19.70;9.80;;;8.50;99.90;;;;;;5055208;28;20029;-69
2024/02/22 05:17:21;;;;;;;21.43;10.03;;;8.50;99.90;;;;;;5055144;28;20035;-69
2024/02/22 05:19:48;;;;;;;18.40;9.50;;;8.50;99.90;;;;;;5055014;28;20041;-69
2024/02/22 05:22:13;;;;;;;20.37;10.00;;;8.50;99.90;;;;;;5054718;28;20549;-69
2024/02/22 05:24:40;;;;;;;31.63;10.73;;;8.50;99.90;;;;;;5055152;28;20069;-69
2024/02/22 05:27:07;;;;;;;21.33;10.47;;;8.50;99.90;;;;;;5055121;28;20029;-69
2024/02/22 05:29:33;;;;;;;14.27;10.00;;;8.50;99.90;;;;;;5054973;28;20024;-69
2024/02/22 05:31:59;;;;;;;16.50;10.67;;;8.50;99.90;;;;;;5054639;28;20055;-69
2024/02/22 05:34:25;;;;;;;20.47;10.70;;;8.50;99.90;;;;;;5054245;28;20143;-70
2024/02/22 05:36:51;;;;;;;33.17;10.83;;;8.50;99.90;;;;;;5054442;28;20075;-69
2024/02/22 05:39:17;;;;;;;33.70;12.00;;;8.40;99.90;;;;;;5054745;28;20558;-69
2024/02/22 05:41:43;;;;;;;42.03;11.60;;;8.40;99.90;;;;;;5054761;28;20017;-69
2024/02/22 05:44:09;;;;;;;43.63;11.90;;;8.40;99.90;;;;;;5054574;28;20013;-69
2024/02/22 05:46:35;;;;;;;47.80;12.67;;;8.40;99.90;;;;;;5054380;28;20067;-69
2024/02/22 05:49:00;;;;;;;34.80;10.77;;;8.40;99.90;;;;;;5054770;28;20088;-69
2024/02/22 05:51:27;;;;;;;43.53;11.47;;;8.40;99.90;;;;;;5054520;28;20025;-69
2024/02/22 05:53:54;;;;;;;37.93;11.10;;;8.40;99.90;;;;;;5073385;28;20017;-69
2024/02/22 05:56:20;;;;;;;42.30;12.63;;;8.40;99.90;;;;;;5074550;28;20400;-69
2024/02/22 05:58:46;;;;;;;41.50;12.53;;;8.40;99.90;;;;;;5072983;28;20527;-69
2024/02/22 06:01:15;;;;;;;57.77;11.87;;;8.40;99.90;;;;;;5074303;28;20044;-69
2024/02/22 06:03:41;;;;;;;51.03;11.67;;;8.40;99.90;;;;;;5074406;28;20038;-69
2024/02/22 06:06:07;;;;;;;38.63;12.33;;;8.40;99.90;;;;;;5074062;28;20465;-69
2024/02/22 06:08:34;;;;;;;52.47;11.50;;;8.40;99.90;;;;;;5074101;28;20035;-69
2024/02/22 06:11:00;;;;;;;43.70;12.17;;;8.40;99.90;;;;;;5074266;28;20071;-69
2024/02/22 06:13:26;;;;;;;57.97;12.30;;;8.40;99.90;;;;;;5073988;28;20126;-69
2024/02/22 06:15:51;;;;;;;28.07;10.50;;;8.40;99.90;;;;;;5074104;28;20028;-69
2024/02/22 06:18:17;;;;;;;29.60;10.70;;;8.40;99.90;;;;;;5073956;28;20067;-69
2024/02/22 06:20:43;;;;;;;29.23;10.83;;;8.40;99.90;;;;;;5073789;28;20086;-69
2024/02/22 06:23:09;;;;;;;45.10;11.03;;;8.40;99.90;;;;;;5074232;28;20028;-69
2024/02/22 06:25:35;;;;;;;33.63;11.33;;;8.40;99.90;;;;;;5055946;28;20056;-69
2024/02/22 06:28:03;;;;;;;27.00;10.53;;;8.50;99.90;;;;;;5073805;28;20079;-69
2024/02/22 06:30:29;;;;;;;20.47;9.73;;;8.40;99.90;;;;;;5073806;28;20060;-69
2024/02/22 06:32:54;;;;;;;18.70;10.77;;;8.50;99.90;;;;;;5073247;28;20025;-69
2024/02/22 06:35:23;;;;;;;15.63;10.13;;;8.50;99.90;;;;;;5073192;28;20044;-69
2024/02/22 06:37:51;;;;;;;22.37;10.03;;;8.50;99.90;;;;;;5073418;28;20023;-69
2024/02/22 06:40:17;;;;;;;22.00;10.30;;;8.50;99.90;;;;;;5073423;28;20032;-69
2024/02/22 06:42:43;;;;;;;20.93;11.23;;;8.50;99.90;;;;;;5073663;28;20025;-69
2024/02/22 06:45:09;;;;;;;22.97;9.83;;;8.50;99.90;;;;;;5073594;28;20446;-69
2024/02/22 06:47:35;;;;;;;17.00;9.73;;;8.50;99.90;;;;;;5073357;28;20017;-69
2024/02/22 06:50:03;;;;;;;15.73;10.60;;;8.60;99.90;;;;;;5073140;28;20095;-69
2024/02/22 06:52:32;;;;;;;27.77;10.00;;;8.60;99.90;;;;;;5073339;28;20029;-69
2024/02/22 06:54:58;;;;;;;20.63;9.53;;;8.60;99.90;;;;;;5073260;28;20024;-69
2024/02/22 06:57:23;;;;;;;15.63;10.07;;;8.70;99.90;;;;;;5073325;28;20024;-69
2024/02/22 06:59:49;;;;;;;17.03;10.00;;;8.70;99.90;;;;;;5073002;28;20025;-69
2024/02/22 07:02:17;;;;;;;29.83;11.70;;;8.70;99.90;;;;;;5072761;28;20021;-70
2024/02/22 07:04:43;;;;;;;23.63;11.00;;;8.70;99.90;;;;;;5072761;28;20078;-69
2024/02/22 07:07:09;;;;;;;28.50;12.00;;;8.70;99.90;;;;;;5073255;28;20043;-69
2024/02/22 07:09:35;;;;;;;28.03;10.50;;;8.70;99.90;;;;;;5072786;28;20476;-69
2024/02/22 07:12:01;;;;;;;32.13;10.53;;;8.80;99.90;;;;;;5073000;28;20017;-69
2024/02/22 07:14:28;;;;;;;20.13;11.03;;;8.80;99.90;;;;;;5072929;28;20071;-69
2024/02/22 07:16:53;;;;;;;25.13;10.57;;;8.80;99.90;;;;;;5055707;28;20021;-68
2024/02/22 07:19:20;;;;;;;26.27;11.37;;;8.80;99.90;;;;;;5072537;28;20435;-69
2024/02/22 07:21:45;;;;;;;33.47;11.87;;;8.90;99.90;;;;;;5072793;28;20384;-69
2024/02/22 07:24:11;;;;;;;36.03;11.90;;;8.90;99.90;;;;;;5072390;28;20035;-69
2024/02/22 07:26:41;;;;;;;40.60;12.67;;;8.90;99.90;;;;;;5059105;28;20466;-69
2024/02/22 07:29:07;;;;;;;33.20;14.27;;;9.00;99.90;;;;;;5052449;28;20389;-69
2024/02/22 07:31:32;;;;;;;32.73;12.07;;;9.00;99.90;;;;;;5052068;28;20032;-69
2024/02/22 07:33:59;;;;;;;32.13;12.83;;;9.10;99.90;;;;;;5052632;28;20458;-69
2024/02/22 07:36:25;;;;;;;32.23;12.37;;;9.10;99.90;;;;;;5052054;28;20096;-69
2024/02/22 07:38:51;;;;;;;25.33;12.90;;;9.10;99.90;;;;;;5052291;28;20060;-69
2024/02/22 07:41:17;;;;;;;21.27;12.47;;;9.20;99.90;;;;;;5050900;28;20032;-69
2024/02/22 07:43:44;;;;;;;22.43;11.47;;;9.20;99.90;;;;;;5050716;28;20017;-69
2024/02/22 07:46:11;;;;;;;18.53;12.63;;;9.30;99.90;;;;;;5050791;28;20025;-69
2024/02/22 07:48:41;;;;;;;19.67;12.27;;;9.30;99.90;;;;;;5050770;28;20017;-69
2024/02/22 07:51:07;;;;;;;26.60;11.97;;;9.40;99.90;;;;;;5049045;28;20477;-70
2024/02/22 07:53:34;;;;;;;30.17;13.17;;;9.50;99.90;;;;;;5048112;28;20029;-70
2024/02/22 07:56:04;;;;;;;19.30;12.27;;;9.50;99.90;;;;;;5049248;28;20040;-69
2024/02/22 07:58:49;;;;;;;23.83;14.77;;;9.50;99.90;;;;;;5051842;28;20102;-69
2024/02/22 08:01:15;;;;;;;27.20;13.77;;;9.60;99.90;;;;;;5052185;28;20029;-69
2024/02/22 08:03:42;;;;;;;20.80;13.03;;;9.60;99.90;;;;;;5052351;28;20028;-69
2024/02/22 08:06:12;;;;;;;22.60;13.90;;;9.70;99.90;;;;;;5051368;28;20021;-70
2024/02/22 08:08:38;;;;;;;29.77;13.70;;;9.80;99.90;;;;;;5051982;28;20033;-71
2024/02/22 08:11:08;;;;;;;27.43;13.93;;;9.80;99.90;;;;;;5052330;28;20385;-69
2024/02/22 08:13:34;;;;;;;21.00;12.83;;;9.90;99.90;;;;;;5050871;28;20524;-69
2024/02/22 08:16:07;;;;;;;17.60;11.10;;;10.00;99.90;;;;;;5049710;28;20029;-69
2024/02/22 08:18:38;;;;;;;21.33;11.47;;;10.10;99.90;;;;;;5050161;28;20497;-69
2024/02/22 08:21:05;;;;;;;22.30;11.40;;;10.20;99.90;;;;;;5052160;28;20120;-71
2024/02/22 08:23:31;;;;;;;20.07;11.27;;;10.20;99.90;;;;;;5056409;28;20094;-74
2024/02/22 08:25:57;;;;;;;20.77;10.70;;;10.30;99.90;;;;;;5056379;28;20044;-73
2024/02/22 08:28:24;;;;;;;17.10;9.90;;;10.30;99.90;;;;;;5056080;28;20469;-74
2024/02/22 08:30:51;;;;;;;19.90;9.70;;;10.30;99.90;;;;;;5056171;28;20466;-74
2024/02/22 08:33:17;;;;;;;20.25;9.88;;;10.30;99.90;;;;;;5056225;28;20393;-74
2024/02/22 08:35:43;;;;;;;21.08;11.38;;;10.40;99.90;;;;;;5056141;28;20082;-71
2024/02/22 08:38:09;;;;;;;17.27;10.10;;;10.40;99.90;;;;;;5053157;28;20079;-70
2024/02/22 08:40:36;;;;;;;19.88;11.27;;;10.40;99.90;;;;;;5074868;28;20400;-72
2024/02/22 08:43:03;;;;;;;18.60;10.97;;;10.40;99.90;;;;;;5075702;28;20035;-74
2024/02/22 08:45:29;;;;;;;20.35;10.93;;;10.40;99.90;;;;;;5055585;28;20060;-73
2024/02/22 08:47:55;;;;;;;24.15;10.82;;;10.40;99.90;;;;;;5054633;28;20530;-70
2024/02/22 08:50:21;;;;;;;24.17;10.35;;;10.50;99.90;;;;;;5051815;28;20037;-70
2024/02/22 08:52:47;;;;;;;17.90;9.97;;;10.50;99.90;;;;;;5037306;28;20025;-70
2024/02/22 08:55:13;;;;;;;22.55;10.82;;;10.50;99.90;;;;;;5055914;28;20032;-69
2024/02/22 08:57:40;;;;;;;21.30;9.75;;;10.50;99.90;;;;;;5055472;28;20032;-74
2024/02/22 09:00:10;;;;;;;17.75;9.60;;;10.60;99.90;;;;;;5055382;28;20961;-70
2024/02/22 09:02:40;;;;;;;37.27;10.97;;;10.60;99.90;;;;;;5048159;28;20044;-69
2024/02/22 09:05:08;;;;;;;33.80;10.83;;;10.60;99.90;;;;;;5075371;28;20036;-74
2024/02/22 09:07:34;;;;;;;28.30;11.00;;;10.60;99.90;;;;;;5075256;28;20025;-74
2024/02/22 09:10:01;;;;;;;26.13;9.77;;;10.60;99.90;;;;;;5061847;28;20025;-74
2024/02/22 09:12:27;;;;;;;12.80;9.63;;;10.70;99.90;;;;;;5054834;28;20107;-74
2024/02/22 09:14:53;;;;;;;20.40;10.43;;;10.70;99.90;;;;;;5055193;28;20108;-69
2024/02/22 09:17:19;;;;;;;33.30;9.93;;;10.70;99.90;;;;;;5055022;28;20104;-73
2024/02/22 09:19:45;;;;;;;25.20;11.00;;;10.70;99.90;;;;;;5054929;28;20033;-73
2024/02/22 09:22:12;;;;;;;20.98;9.85;;;10.80;99.90;;;;;;5054891;28;20033;-73
2024/02/22 09:24:42;;;;;;;17.35;9.75;;;10.80;99.90;;;;;;5054702;28;20032;-73
2024/02/22 09:27:08;;;;;;;29.92;12.90;;;10.80;99.90;;;;;;5054558;28;20029;-71
2024/02/22 09:29:36;;;;;;;31.80;13.25;;;10.90;99.90;;;;;;5054853;28;20029;-72
2024/02/22 09:32:01;;;;;;;26.00;13.15;;;10.80;99.90;;;;;;5054418;28;20469;-73
2024/02/22 09:34:28;;;;;;;21.90;12.27;;;10.90;99.90;;;;;;5054662;28;20112;-72
2024/02/22 09:36:54;;;;;;;32.35;14.05;;;10.90;99.90;;;;;;5054691;28;20017;-71
2024/02/22 09:39:20;;;;;;;30.85;13.60;;;10.90;99.90;;;;;;5054583;28;20041;-72
2024/02/22 09:41:46;;;;;;;27.20;13.52;;;10.90;99.90;;;;;;5036898;28;20059;-74
2024/02/22 09:44:13;;;;;;;37.25;14.55;;;10.90;99.90;;;;;;5054650;28;20473;-74
2024/02/22 09:46:40;;;;;;;32.70;15.07;;;10.90;99.90;;;;;;5054482;28;20473;-73
2024/02/22 09:49:06;;;;;;;42.95;15.10;;;10.90;99.90;;;;;;5054333;28;20032;-73
2024/02/22 09:51:35;;;;;;;39.65;15.60;;;10.90;99.90;;;;;;5054508;28;20033;-73
2024/02/22 09:54:01;;;;;;;37.60;15.27;;;10.90;99.90;;;;;;5054607;28;20028;-73
2024/02/22 09:56:27;;;;;;;36.83;14.23;;;10.90;99.90;;;;;;5054232;28;20477;-73
2024/02/22 09:58:54;;;;;;;44.90;14.25;;;10.90;99.90;;;;;;5053178;28;20541;-74
2024/02/22 10:01:20;;;;;;;32.08;12.20;;;10.90;99.90;;;;;;5053553;28;20042;-73
2024/02/22 10:03:46;;;;;;;19.27;9.38;;;10.90;99.90;;;;;;5053521;28;20025;-74
2024/02/22 10:06:17;;;;;;;31.73;10.13;;;10.90;99.90;;;;;;5053576;28;20025;-73
2024/02/22 10:08:44;;;;;;;17.50;9.85;;;11.00;99.90;;;;;;5053282;28;20053;-74
2024/02/22 10:11:10;;;;;;;19.17;8.75;;;11.00;99.90;;;;;;5053277;28;20025;-73
2024/02/22 10:13:36;;;;;;;22.10;8.85;;;11.00;99.90;;;;;;5060850;23;20041;-74
2024/02/22 10:16:12;;;;;;;21.08;8.90;;;11.00;99.90;;;;;;5053527;28;20380;-73
2024/02/22 10:18:39;;;;;;;16.25;9.07;;;11.00;99.90;;;;;;5054596;28;20028;-73
2024/02/22 10:21:18;;;;;;;14.73;8.88;;;11.00;99.90;;;;;;5053801;28;20627;-73
2024/02/22 10:23:54;;;;;;;18.50;10.50;;;11.00;99.90;;;;;;5054324;28;20066;-75
2024/02/22 10:26:20;;;;;;;18.30;10.60;;;11.00;99.90;;;;;;5054215;28;20546;-74
2024/02/22 10:28:56;;;;;;;17.35;10.93;;;11.00;99.90;;;;;;5054391;28;20021;-75
2024/02/22 10:31:23;;;;;;;19.02;10.30;;;11.10;99.90;;;;;;5054685;28;20032;-75
2024/02/22 10:33:49;;;;;;;19.13;10.48;;;11.00;99.90;;;;;;5074001;28;20527;-75
2024/02/22 10:36:16;;;;;;;17.27;11.35;;;11.10;99.90;;;;;;5073831;28;20021;-75
2024/02/22 10:38:42;;;;;;;14.52;10.13;;;11.10;99.90;;;;;;5073805;28;20044;-75
2024/02/22 10:41:13;;;;;;;15.98;8.63;;;11.00;99.90;;;;;;5073825;28;20117;-75
2024/02/22 10:43:42;;;;;;;19.60;10.38;;;11.10;99.90;;;;;;5073467;28;20058;-74
2024/02/22 10:46:13;;;;;;;31.73;12.77;;;11.10;99.90;;;;;;5055296;28;20220;-74
2024/02/22 10:48:45;;;;;;;17.42;9.90;;;11.10;99.90;;;;;;5073549;28;20035;-74
2024/02/22 10:51:12;;;;;;;27.90;16.55;;;11.10;99.90;;;;;;5072944;28;20021;-74
2024/02/22 10:53:42;;;;;;;23.98;14.20;;;11.10;99.90;;;;;;5071923;28;20025;-73
2024/02/22 10:56:11;;;;;;;20.00;11.25;;;11.10;99.90;;;;;;5073321;28;20029;-73
2024/02/22 10:58:39;;;;;;;13.52;9.48;;;11.10;99.90;;;;;;5073654;28;20379;-74
2024/02/22 11:01:08;;;;;;;14.45;8.98;;;11.10;99.90;;;;;;5073464;28;20482;-73
2024/02/22 11:03:35;;;;;;;13.70;8.30;;;11.10;99.90;;;;;;5073407;28;20033;-74
2024/02/22 11:06:03;;;;;;;14.23;8.38;;;11.10;99.90;;;;;;5071966;28;20051;-73
2024/02/22 11:08:30;;;;;;;13.18;7.93;;;11.00;99.90;;;;;;5072582;28;20021;-74
2024/02/22 11:11:02;;;;;;;16.75;9.55;;;11.00;99.90;;;;;;5073100;28;20070;-74
2024/02/22 11:13:28;;;;;;;15.50;7.93;;;11.00;99.90;;;;;;5073070;28;20500;-75
2024/02/22 11:15:54;;;;;;;15.40;8.00;;;11.00;99.90;;;;;;5073059;28;20023;-75
2024/02/22 11:18:24;;;;;;;13.10;7.70;;;11.00;99.90;;;;;;5072603;28;20060;-75
2024/02/22 11:20:50;;;;;;;11.55;7.70;;;11.00;99.90;;;;;;5072890;28;20066;-75
2024/02/22 11:23:20;;;;;;;11.43;8.77;;;11.10;99.90;;;;;;5072758;28;20074;-75
2024/02/22 11:25:46;;;;;;;18.73;8.20;;;11.00;99.90;;;;;;5073163;28;20060;-74
2024/02/22 11:28:15;;;;;;;11.30;7.88;;;11.00;99.90;;;;;;5072744;28;20019;-75
2024/02/22 11:30:44;;;;;;;11.63;7.63;;;11.00;99.90;;;;;;5072794;28;20031;-74
2024/02/22 11:33:11;;;;;;;12.00;7.63;;;11.00;99.90;;;;;;5072809;28;20107;-73
2024/02/22 11:35:37;;;;;;;13.00;8.05;;;11.00;99.90;;;;;;5072834;28;20024;-75
2024/02/22 11:40:38;;;;;;;12.68;7.45;;;11.00;99.90;;;;;;5292165;22;20057;-74
2024/02/22 11:43:04;;;;;;;14.05;7.28;;;11.00;99.90;;;;;;5033159;28;20029;-74
2024/02/22 11:45:31;;;;;;;10.80;7.28;;;11.00;99.90;;;;;;5033060;28;20034;-75
2024/02/22 11:47:57;;;;;;;13.57;8.02;;;11.00;99.90;;;;;;5033023;28;20026;-75
2024/02/22 11:50:24;;;;;;;8.02;7.05;;;11.00;99.90;;;;;;5033006;28;20017;-76
2024/02/22 11:52:50;;;;;;;10.80;6.85;;;10.90;99.90;;;;;;5033194;28;20025;-74
2024/02/22 11:55:16;;;;;;;11.82;6.93;;;10.90;99.90;;;;;;5035917;28;20021;-76
2024/02/22 11:57:42;;;;;;;10.88;7.05;;;10.90;99.90;;;;;;5033916;28;20052;-74
2024/02/22 12:00:09;;;;;;;14.25;7.00;;;10.90;99.90;;;;;;5034536;28;20068;-75
2024/02/22 12:02:37;;;;;;;12.27;7.68;;;11.00;99.90;;;;;;5032753;28;20010;-75
2024/02/22 12:05:05;;;;;;;11.38;6.80;;;10.90;99.90;;;;;;5033465;28;20463;-72
2024/02/22 12:07:32;;;;;;;13.23;7.30;;;11.00;99.90;;;;;;5032765;28;20477;-75
2024/02/22 12:09:58;;;;;;;11.40;7.38;;;10.90;99.90;;;;;;5032187;28;20025;-74
2024/02/22 12:12:26;;;;;;;10.35;6.18;;;10.90;99.90;;;;;;5032512;28;20057;-75
2024/02/22 12:14:56;;;;;;;11.98;6.63;;;10.90;99.90;;;;;;5032363;28;20436;-75
2024/02/22 12:17:30;;;;;;;10.65;6.30;;;10.90;99.90;;;;;;5032944;28;20022;-74
2024/02/22 12:19:56;;;;;;;10.50;5.63;;;11.00;99.90;;;;;;5032220;28;20084;-73
2024/02/22 12:22:22;;;;;;;10.18;7.00;;;11.00;99.90;;;;;;5032380;28;20022;-75
2024/02/22 12:24:49;;;;;;;10.68;6.45;;;11.00;99.90;;;;;;5032267;28;20456;-75
2024/02/22 12:27:16;;;;;;;12.05;6.85;;;11.00;99.90;;;;;;5032523;28;20064;-71
2024/02/22 12:29:42;;;;;;;16.35;7.05;;;10.90;99.90;;;;;;5032696;28;20025;-75
2024/02/22 12:32:08;;;;;;;11.00;6.80;;;10.90;99.90;;;;;;5032299;28;20025;-74
2024/02/22 12:34:36;;;;;;;11.70;6.57;;;11.00;99.90;;;;;;5032351;28;20113;-75
2024/02/22 12:37:03;;;;;;;9.75;7.15;;;11.00;99.90;;;;;;5032396;28;20017;-74